Time;durP1;ratioP1;P1;durP2;ratioP2;P2;SDS_P1;SDS_P2;PMS_P1;PMS_P2;Temp;Humidity;BMP_temperature;BMP_pressure;BME280_temperature;BME280_humidity;BME280_pressure;Samples;Min_cycle;Max_cycle;Signal;HPM_P1;HPM_P2
2022/02/03 00:01:40;;;;;;;0.10;0.10;;;8.20;99.90;;;;;;5032111;28;20034;-72
2022/02/03 00:04:12;;;;;;;0.20;0.20;;;8.20;99.90;;;;;;5032647;28;20014;-73
2022/02/03 00:06:55;;;;;;;0.00;0.00;;;8.20;99.90;;;;;;5032502;28;20619;-73
2022/02/03 00:25:22;;;;;;;0.20;0.20;;;8.20;99.90;;;;;;5014116;28;20054;-72
2022/02/03 00:28:10;;;;;;;0.55;0.28;;;8.20;99.90;;;;;;5016233;28;20076;-72
2022/02/03 00:36:38;;;;;;;0.20;0.20;;;8.20;99.90;;;;;;5014943;28;20036;-72
2022/02/03 00:50:07;;;;;;;0.63;0.63;;;8.10;99.90;;;;;;5035627;28;20072;-72
2022/02/03 00:52:35;;;;;;;0.28;0.28;;;8.10;99.90;;;;;;5035224;28;20037;-73
2022/02/03 00:55:03;;;;;;;0.20;0.20;;;8.10;99.90;;;;;;5035285;28;20040;-72
2022/02/03 00:57:31;;;;;;;0.10;0.10;;;8.10;99.90;;;;;;5035503;28;20029;-73
2022/02/03 01:00:11;;;;;;;0.10;0.10;;;8.10;99.90;;;;;;5033930;28;20029;-72
2022/02/03 01:02:42;;;;;;;0.05;0.05;;;8.10;99.90;;;;;;5034809;28;20036;-72
2022/02/03 01:05:09;;;;;;;0.40;0.40;;;8.10;99.90;;;;;;5035470;28;20025;-72
2022/02/03 01:07:38;;;;;;;0.03;0.03;;;8.10;99.90;;;;;;5035097;28;20032;-72
2022/02/03 01:10:11;;;;;;;0.00;0.00;;;8.10;99.90;;;;;;5035123;28;20101;-72
2022/02/03 01:17:43;;;;;;;0.00;0.00;;;8.10;99.90;;;;;;5015146;28;20025;-72
2022/02/03 01:45:19;;;;;;;0.43;0.43;;;7.90;99.90;;;;;;5034770;28;20040;-72
2022/02/03 01:52:43;;;;;;;0.13;0.13;;;7.90;99.90;;;;;;5034277;28;20022;-72
2022/02/03 01:55:12;;;;;;;0.05;0.03;;;7.90;99.90;;;;;;5033144;28;20033;-73
2022/02/03 01:58:01;;;;;;;0.00;0.00;;;7.80;99.90;;;;;;5034197;28;20519;-73
2022/02/03 02:00:27;;;;;;;0.00;0.00;;;7.80;99.90;;;;;;5034288;28;20087;-72
2022/02/03 02:03:10;;;;;;;0.05;0.05;;;7.80;99.90;;;;;;5034431;28;20108;-72
2022/02/03 02:05:57;;;;;;;0.10;0.10;;;7.80;99.90;;;;;;5034286;28;20033;-72
2022/02/03 02:08:57;;;;;;;0.00;0.00;;;7.80;99.90;;;;;;5033785;28;20457;-72
2022/02/03 02:40:29;;;;;;;0.82;0.82;;;7.70;99.90;;;;;;5011784;28;20523;-73
2022/02/03 02:43:09;;;;;;;0.32;0.32;;;7.70;99.90;;;;;;5011451;28;20034;-72
2022/02/03 02:46:07;;;;;;;0.43;0.43;;;7.70;99.90;;;;;;5010811;28;20026;-72
2022/02/03 02:48:51;;;;;;;0.10;0.10;;;7.60;99.90;;;;;;5011087;28;20432;-73
2022/02/03 02:51:24;;;;;;;0.63;0.35;;;7.60;99.90;;;;;;5014046;28;20030;-73
2022/02/03 02:56:47;;;;;;;0.00;0.00;;;7.60;99.90;;;;;;5013870;28;20041;-72
2022/02/03 02:59:53;;;;;;;2.92;1.17;;;7.60;99.90;;;;;;5013734;28;20040;-72
2022/02/03 03:30:20;;;;;;;0.35;0.35;;;7.20;99.90;;;;;;5012808;28;20025;-73
2022/02/03 03:33:33;;;;;;;0.00;0.00;;;7.20;99.90;;;;;;5012358;28;20055;-72
2022/02/03 03:36:06;;;;;;;0.00;0.00;;;7.20;99.90;;;;;;5013690;28;20030;-73
2022/02/03 03:38:35;;;;;;;0.10;0.10;;;7.20;99.90;;;;;;5032396;28;20040;-72
2022/02/03 03:41:02;;;;;;;0.03;0.03;;;7.20;99.90;;;;;;5032718;28;20021;-73
2022/02/03 03:43:31;;;;;;;0.88;0.73;;;7.20;99.90;;;;;;5031595;28;20087;-72
2022/02/03 03:46:06;;;;;;;0.25;0.10;;;7.10;99.90;;;;;;5031911;28;20029;-72
2022/02/03 03:48:39;;;;;;;0.00;0.00;;;7.00;99.90;;;;;;5011802;28;20029;-73
2022/02/03 03:51:08;;;;;;;;;;;7.00;99.90;;;;;;5012774;28;20516;-73
2022/02/03 03:53:47;;;;;;;0.40;0.40;;;7.00;99.90;;;;;;5011591;28;19913;-72
2022/02/03 03:56:33;;;;;;;0.20;0.20;;;7.00;99.90;;;;;;5012835;28;20591;-73
2022/02/03 05:08:22;;;;;;;0.00;0.00;;;6.60;99.90;;;;;;5043562;28;20127;-72
2022/02/03 05:20:22;;;;;;;0.00;0.00;;;6.70;99.90;;;;;;5015438;28;20049;-72
2022/02/03 05:26:18;;;;;;;0.10;0.10;;;6.60;99.90;;;;;;5013674;28;20076;-73
2022/02/03 05:55:08;;;;;;;0.20;0.20;;;6.60;99.90;;;;;;5022456;28;20043;-72
2022/02/03 06:08:31;;;;;;;0.65;0.65;;;6.60;99.90;;;;;;5033812;28;20028;-73
2022/02/03 06:14:06;;;;;;;0.47;0.47;;;6.60;99.90;;;;;;5033640;28;20404;-72
2022/02/03 06:21:40;;;;;;;0.13;0.13;;;6.60;99.90;;;;;;5034124;28;20032;-72
2022/02/03 06:29:21;;;;;;;0.40;0.40;;;6.60;99.90;;;;;;5033890;28;20056;-73
2022/02/03 06:31:49;;;;;;;0.40;0.40;;;6.60;99.90;;;;;;5032560;28;20097;-72
2022/02/03 06:34:15;;;;;;;0.90;0.70;;;6.60;99.90;;;;;;5031548;28;20029;-72
2022/02/03 06:36:42;;;;;;;0.10;0.10;;;6.60;99.90;;;;;;5033053;28;20022;-73
2022/02/03 06:39:17;;;;;;;0.10;0.10;;;6.60;99.90;;;;;;5032707;28;20025;-74
2022/02/03 06:41:43;;;;;;;0.00;0.00;;;6.60;99.90;;;;;;5022745;28;20080;-73
2022/02/03 06:44:11;;;;;;;0.00;0.00;;;6.70;99.90;;;;;;5028097;28;20033;-73
2022/02/03 06:46:39;;;;;;;0.32;0.32;;;6.70;99.90;;;;;;5030822;28;20394;-73
2022/02/03 06:49:15;;;;;;;0.32;0.32;;;6.70;99.90;;;;;;5031822;28;20571;-73
2022/02/03 06:51:49;;;;;;;0.40;0.40;;;6.70;99.90;;;;;;5028458;28;20097;-73
2022/02/03 06:54:23;;;;;;;0.00;0.00;;;6.60;99.90;;;;;;5032271;28;20025;-73
2022/02/03 06:56:55;;;;;;;0.00;0.00;;;6.60;99.90;;;;;;5032587;28;20032;-73
2022/02/03 06:59:27;;;;;;;0.10;0.10;;;6.60;99.90;;;;;;5032390;28;20068;-72
2022/02/03 07:01:53;;;;;;;0.00;0.00;;;6.60;99.90;;;;;;5031720;28;20029;-73
2022/02/03 07:04:24;;;;;;;0.55;0.55;;;6.60;99.90;;;;;;5032962;28;20044;-72
2022/02/03 07:06:50;;;;;;;0.10;0.10;;;6.70;99.90;;;;;;5032486;28;20033;-73
2022/02/03 07:09:15;;;;;;;0.00;0.00;;;6.70;99.90;;;;;;5032151;28;20100;-73
2022/02/03 07:11:42;;;;;;;0.80;0.57;;;6.70;99.90;;;;;;5029074;28;20037;-73
2022/02/03 07:14:10;;;;;;;0.45;0.40;;;6.60;99.90;;;;;;5021144;28;20136;-72
2022/02/03 07:16:43;;;;;;;2.10;0.73;;;6.60;99.90;;;;;;5025038;28;20032;-73
2022/02/03 07:19:09;;;;;;;0.25;0.25;;;6.60;99.90;;;;;;5021494;28;20476;-71
2022/02/03 07:21:35;;;;;;;0.00;0.00;;;6.60;99.90;;;;;;5021114;28;20061;-72
2022/02/03 07:24:00;;;;;;;0.10;0.10;;;6.60;99.90;;;;;;5016721;28;20048;-72
2022/02/03 07:26:26;;;;;;;0.10;0.10;;;6.60;99.90;;;;;;5030236;28;20419;-72
2022/02/03 07:28:51;;;;;;;0.00;0.00;;;6.60;99.90;;;;;;5029020;28;20107;-73
2022/02/03 07:31:17;;;;;;;0.15;0.15;;;6.60;99.90;;;;;;5030847;28;20020;-74
2022/02/03 07:33:43;;;;;;;0.10;0.10;;;6.60;99.90;;;;;;5029527;28;20992;-73
2022/02/03 07:36:09;;;;;;;0.70;0.70;;;6.70;99.90;;;;;;5029914;28;20037;-74
2022/02/03 07:38:37;;;;;;;0.00;0.00;;;6.70;99.90;;;;;;5016951;28;20034;-72
2022/02/03 07:41:03;;;;;;;0.17;0.17;;;6.70;99.90;;;;;;5020402;28;20010;-72
2022/02/03 07:43:29;;;;;;;1.05;0.22;;;6.70;99.90;;;;;;5024635;28;20048;-73
2022/02/03 07:45:56;;;;;;;0.10;0.10;;;6.80;99.90;;;;;;5022491;28;20017;-73
2022/02/03 07:48:22;;;;;;;0.00;0.00;;;6.80;99.90;;;;;;5022912;28;20484;-74
2022/02/03 07:50:48;;;;;;;0.15;0.15;;;6.80;99.90;;;;;;5025262;28;20022;-74
2022/02/03 07:53:14;;;;;;;0.05;0.05;;;6.90;99.90;;;;;;5027295;28;20034;-72
2022/02/03 07:55:40;;;;;;;0.00;0.00;;;6.90;99.90;;;;;;5029691;28;20365;-72
2022/02/03 07:58:05;;;;;;;0.20;0.20;;;7.00;99.90;;;;;;5024833;28;20041;-72
2022/02/03 08:00:31;;;;;;;1.55;0.98;;;7.00;99.90;;;;;;5026606;28;20535;-74
2022/02/03 08:02:57;;;;;;;0.90;0.40;;;7.00;99.90;;;;;;5029491;28;20029;-74
2022/02/03 08:05:24;;;;;;;0.32;0.32;;;7.10;99.90;;;;;;5025577;28;20050;-72
2022/02/03 08:08:13;;;;;;;0.08;0.08;;;7.00;99.90;;;;;;5022086;28;20609;-72
2022/02/03 08:10:44;;;;;;;0.10;0.10;;;7.10;99.90;;;;;;5026945;28;20108;-72
2022/02/03 08:13:14;;;;;;;0.00;0.00;;;7.10;99.90;;;;;;5025329;28;20035;-72
2022/02/03 08:15:40;;;;;;;0.00;0.00;;;7.10;99.90;;;;;;5033734;28;20560;-72
2022/02/03 08:18:11;;;;;;;0.25;0.25;;;7.10;99.90;;;;;;5028810;28;20862;-74
2022/02/03 08:20:45;;;;;;;0.00;0.00;;;7.10;99.90;;;;;;5027383;28;20029;-72
2022/02/03 08:26:14;;;;;;;0.22;0.22;;;7.20;99.90;;;;;;5026452;28;20115;-73
2022/02/03 08:31:10;;;;;;;0.10;0.10;;;7.20;99.90;;;;;;5027930;28;20029;-73
2022/02/03 08:33:36;;;;;;;0.15;0.10;;;7.20;99.90;;;;;;5025591;28;20029;-71
2022/02/03 08:36:05;;;;;;;0.25;0.22;;;7.20;99.90;;;;;;5023916;28;20407;-74
2022/02/03 08:38:54;;;;;;;0.20;0.20;;;7.20;99.90;;;;;;5030011;28;20473;-74
2022/02/03 08:41:21;;;;;;;0.00;0.00;;;7.30;99.90;;;;;;5028152;28;20041;-74
2022/02/03 08:43:47;;;;;;;0.00;0.00;;;7.30;99.90;;;;;;5035598;28;20028;-74
2022/02/03 08:46:15;;;;;;;0.20;0.20;;;7.30;99.90;;;;;;5029869;28;20025;-74
2022/02/03 08:48:41;;;;;;;0.20;0.20;;;7.30;99.90;;;;;;5037001;28;20021;-74
2022/02/03 08:51:09;;;;;;;0.45;0.45;;;7.30;99.90;;;;;;5032326;28;20499;-74
2022/02/03 08:53:42;;;;;;;0.00;0.00;;;7.40;99.90;;;;;;5031339;28;20029;-71
2022/02/03 08:56:36;;;;;;;0.08;0.08;;;7.40;99.90;;;;;;5030079;28;20033;-72
2022/02/03 09:59:06;;;;;;;0.10;0.10;;;7.60;99.90;;;;;;5034196;28;20029;-75
2022/02/03 10:01:43;;;;;;;0.10;0.10;;;7.60;99.90;;;;;;5047236;28;20033;-74
2022/02/03 10:04:19;;;;;;;0.20;0.20;;;7.50;99.90;;;;;;5029394;28;20025;-72
2022/02/03 10:06:55;;;;;;;0.30;0.30;;;7.60;99.90;;;;;;5031477;28;20082;-73
2022/02/03 10:09:36;;;;;;;0.00;0.00;;;7.50;99.90;;;;;;5042579;28;20499;-76
2022/02/03 10:12:02;;;;;;;0.20;0.20;;;7.60;99.90;;;;;;5030724;28;20040;-76
2022/02/03 10:14:42;;;;;;;0.05;0.05;;;7.60;99.90;;;;;;5034502;28;20017;-76
2022/02/03 10:17:08;;;;;;;0.00;0.00;;;7.60;99.90;;;;;;5034173;28;20104;-75
2022/02/03 10:19:37;;;;;;;0.75;0.73;;;7.60;99.90;;;;;;5036363;28;20029;-73
2022/02/03 10:22:12;;;;;;;0.20;0.20;;;7.70;99.90;;;;;;5029306;28;20040;-72
2022/02/03 10:24:39;;;;;;;12.20;0.55;;;7.80;99.90;;;;;;5029529;28;20099;-72
2022/02/03 10:27:21;;;;;;;0.10;0.10;;;7.80;99.90;;;;;;5028367;28;20489;-77
2022/02/03 10:29:48;;;;;;;0.10;0.10;;;7.90;99.90;;;;;;5029095;28;20025;-74
2022/02/03 10:32:13;;;;;;;0.00;0.00;;;7.90;99.90;;;;;;5030357;28;20081;-73
2022/02/03 10:34:44;;;;;;;0.00;0.00;;;7.90;99.90;;;;;;5032514;28;20025;-73
2022/02/03 10:43:02;;;;;;;1.08;0.30;;;7.90;99.90;;;;;;5036279;28;20128;-73
2022/02/03 10:50:47;;;;;;;0.20;0.20;;;7.70;99.90;;;;;;5031355;28;20037;-76
2022/02/03 10:56:24;;;;;;;3.17;1.45;;;7.80;99.90;;;;;;5010540;28;20045;-76
2022/02/03 10:59:35;;;;;;;0.75;0.75;;;7.80;99.90;;;;;;5032755;28;20166;-76
2022/02/03 11:02:13;;;;;;;;;;;7.90;99.90;;;;;;5034589;28;21122;-75
2022/02/03 11:07:30;;;;;;;1.35;0.75;;;8.00;99.90;;;;;;5027247;28;20508;-75
2022/02/03 11:10:41;;;;;;;0.47;0.33;;;7.90;99.90;;;;;;5028034;28;20029;-73
2022/02/03 11:12:52;;;;;;;1.20;0.57;;;8.00;99.90;;;;;;5027850;28;20033;-73
2022/02/03 11:15:18;;;;;;;1.45;1.05;;;8.00;99.90;;;;;;5032329;28;20026;-76
2022/02/03 11:17:49;;;;;;;1.33;0.73;;;8.00;99.90;;;;;;5034441;28;20107;-75
2022/02/03 11:20:21;;;;;;;0.25;0.25;;;8.00;99.90;;;;;;5036653;28;20025;-76
2022/02/03 11:42:09;;;;;;;0.22;0.22;;;8.30;99.90;;;;;;5035544;28;20044;-75
2022/02/03 12:03:26;;;;;;;0.08;0.08;;;8.10;99.90;;;;;;5030383;28;20060;-73
2022/02/03 12:11:35;;;;;;;0.10;0.10;;;8.00;99.90;;;;;;5029034;28;20029;-75
2022/02/03 12:21:53;;;;;;;0.30;0.30;;;7.90;99.90;;;;;;5032562;28;20083;-76
2022/02/03 12:29:36;;;;;;;0.10;0.10;;;7.90;99.90;;;;;;5029489;28;20087;-72
2022/02/03 12:37:37;;;;;;;1.70;0.52;;;7.90;99.90;;;;;;5027617;28;20826;-73
2022/02/03 12:45:26;;;;;;;0.93;0.20;;;7.80;99.90;;;;;;5031239;28;20056;-76
2022/02/03 12:47:58;;;;;;;0.30;0.30;;;7.80;99.90;;;;;;5031314;28;20475;-75
2022/02/03 12:50:29;;;;;;;0.52;0.52;;;7.90;99.90;;;;;;5041402;28;20072;-75
2022/02/03 12:52:58;;;;;;;0.25;0.25;;;8.00;99.90;;;;;;5031596;28;20034;-73
2022/02/03 12:55:35;;;;;;;0.43;0.43;;;8.40;99.90;;;;;;5034335;28;20022;-72
2022/02/03 12:58:13;;;;;;;0.75;0.55;;;8.70;99.90;;;;;;5043731;28;20530;-75
2022/02/03 13:00:47;;;;;;;0.00;0.00;;;8.90;99.90;;;;;;5028687;28;20029;-75
2022/02/03 13:03:16;;;;;;;0.17;0.17;;;9.00;99.90;;;;;;5034148;28;20033;-73
2022/02/03 13:05:54;;;;;;;0.10;0.10;;;9.10;99.90;;;;;;5045510;28;20104;-73
2022/02/03 13:08:33;;;;;;;0.52;0.43;;;9.30;99.90;;;;;;5031674;28;20030;-75
2022/02/03 13:11:15;;;;;;;0.00;0.00;;;9.30;99.90;;;;;;5046049;28;20441;-75
2022/02/03 13:13:56;;;;;;;0.25;0.22;;;9.30;99.90;;;;;;5031467;28;20374;-73
2022/02/03 13:16:22;;;;;;;0.28;0.28;;;9.30;99.90;;;;;;5033050;28;20079;-75
2022/02/03 13:19:25;;;;;;;0.40;0.13;;;9.30;99.90;;;;;;5038305;28;20021;-75
2022/02/03 13:24:38;;;;;;;0.20;0.20;;;9.20;99.90;;;;;;5045685;28;20075;-75
2022/02/03 13:27:18;;;;;;;2.95;1.67;;;8.90;99.90;;;;;;5044807;28;20465;-75
2022/02/03 13:29:58;;;;;;;0.45;0.40;;;8.70;99.90;;;;;;5031899;28;20071;-72
2022/02/03 13:32:32;;;;;;;1.17;0.52;;;8.60;99.90;;;;;;5047811;28;20029;-72
2022/02/03 13:37:38;;;;;;;0.10;0.10;;;8.60;99.90;;;;;;5038925;28;20029;-75
2022/02/03 13:40:11;;;;;;;0.82;0.50;;;8.40;99.90;;;;;;5029835;28;20056;-75
2022/02/03 13:42:39;;;;;;;0.75;0.75;;;8.50;99.90;;;;;;5035421;28;20551;-72
2022/02/03 13:45:09;;;;;;;0.20;0.20;;;8.80;99.90;;;;;;5047582;28;20120;-75
2022/02/03 13:47:36;;;;;;;0.20;0.20;;;8.80;99.90;;;;;;5050604;28;20041;-76
2022/02/03 13:50:10;;;;;;;7.45;1.20;;;8.60;99.90;;;;;;5028423;28;20389;-76
2022/02/03 14:15:49;;;;;;;0.00;0.00;;;8.30;99.90;;;;;;5036804;28;20026;-72
2022/02/03 14:21:05;;;;;;;0.10;0.10;;;8.20;99.90;;;;;;5046249;28;20327;-75
2022/02/03 14:29:18;;;;;;;1.45;0.88;;;8.30;99.90;;;;;;5026114;28;20079;-75
2022/02/03 14:31:47;;;;;;;0.05;0.05;;;8.40;99.90;;;;;;5042025;28;20492;-72
2022/02/03 14:34:22;;;;;;;0.03;0.03;;;8.40;99.90;;;;;;5061935;28;20029;-75
2022/02/03 14:36:58;;;;;;;0.10;0.10;;;8.40;99.90;;;;;;5040921;28;20018;-72
2022/02/03 14:39:36;;;;;;;0.10;0.10;;;8.40;99.90;;;;;;5036841;28;20021;-72
2022/02/03 14:42:02;;;;;;;0.08;0.08;;;8.40;99.90;;;;;;5031801;28;20025;-76
2022/02/03 14:44:27;;;;;;;0.00;0.00;;;8.40;99.90;;;;;;5030588;28;20018;-75
2022/02/03 14:46:53;;;;;;;0.00;0.00;;;8.40;99.90;;;;;;5036870;28;20122;-75
2022/02/03 14:49:19;;;;;;;0.60;0.35;;;8.40;99.90;;;;;;5040713;28;20496;-75
2022/02/03 14:51:54;;;;;;;0.00;0.00;;;8.30;99.90;;;;;;5036923;28;20032;-75
2022/02/03 14:59:33;;;;;;;0.05;0.05;;;8.30;99.90;;;;;;5028123;28;20126;-72
2022/02/03 15:01:59;;;;;;;0.43;0.43;;;8.30;99.90;;;;;;5037616;28;20100;-76
2022/02/03 15:04:29;;;;;;;0.05;0.05;;;8.30;99.90;;;;;;5048749;28;20496;-75
2022/02/03 15:07:00;;;;;;;0.10;0.10;;;8.30;99.90;;;;;;5031860;28;20025;-76
2022/02/03 15:12:02;;;;;;;0.22;0.22;;;8.30;99.90;;;;;;5028890;28;20504;-76
2022/02/03 15:14:29;;;;;;;0.38;0.38;;;8.30;99.90;;;;;;5029213;28;20017;-72
2022/02/03 15:16:55;;;;;;;0.70;0.68;;;8.30;99.90;;;;;;5039979;28;20067;-73
2022/02/03 15:19:20;;;;;;;0.30;0.30;;;8.40;99.90;;;;;;5019953;28;20057;-76
2022/02/03 15:21:46;;;;;;;0.15;0.15;;;8.40;99.90;;;;;;5038370;28;20033;-75
2022/02/03 15:24:12;;;;;;;0.20;0.20;;;8.40;99.90;;;;;;5031707;28;20036;-72
2022/02/03 15:26:39;;;;;;;0.45;0.45;;;8.50;99.90;;;;;;5049629;28;20112;-74
2022/02/03 15:29:04;;;;;;;0.00;0.00;;;8.50;99.90;;;;;;5031992;28;20044;-72
2022/02/03 15:31:32;;;;;;;0.10;0.10;;;8.50;99.90;;;;;;5030047;28;20079;-73
2022/02/03 15:34:21;;;;;;;0.05;0.05;;;8.50;99.90;;;;;;5029208;28;20069;-75
2022/02/03 15:36:51;;;;;;;0.10;0.10;;;8.50;99.90;;;;;;5022209;28;20056;-75
2022/02/03 15:39:23;;;;;;;0.25;0.25;;;8.50;99.90;;;;;;5038308;28;20103;-76
2022/02/03 15:41:49;;;;;;;6.05;0.45;;;8.50;99.90;;;;;;5036887;28;20036;-76
2022/02/03 15:44:16;;;;;;;0.08;0.08;;;8.60;99.90;;;;;;5045106;28;20055;-75
2022/02/03 15:46:56;;;;;;;0.90;0.65;;;8.50;99.90;;;;;;5022717;28;20116;-75
2022/02/03 16:15:01;;;;;;;0.43;0.43;;;8.40;99.90;;;;;;5034220;28;20059;-76
2022/02/03 16:17:03;;;;;;;0.52;0.52;;;8.40;99.90;;;;;;5034802;28;20025;-76
2022/02/03 16:19:38;;;;;;;1.67;1.35;;;8.40;99.90;;;;;;5033686;28;20102;-75
2022/02/03 16:22:18;;;;;;;0.00;0.00;;;8.40;99.90;;;;;;5035420;28;20029;-72
2022/02/03 16:24:52;;;;;;;0.35;0.13;;;8.40;99.90;;;;;;5034710;28;20132;-72
2022/02/03 16:41:14;;;;;;;0.95;0.50;;;8.30;99.90;;;;;;5035511;28;20112;-75
2022/02/03 16:50:23;;;;;;;0.52;0.52;;;8.30;99.90;;;;;;5034471;28;20519;-72
2022/02/03 16:52:24;;;;;;;0.00;0.00;;;8.20;99.90;;;;;;5034910;28;20107;-75
2022/02/03 16:54:51;;;;;;;0.00;0.00;;;8.20;99.90;;;;;;5035499;28;20017;-76
2022/02/03 16:57:21;;;;;;;0.52;0.52;;;8.20;99.90;;;;;;5035379;28;20082;-76
2022/02/03 17:02:24;;;;;;;0.30;0.30;;;8.20;99.90;;;;;;5035288;28;20029;-72
2022/02/03 17:04:52;;;;;;;0.05;0.05;;;8.20;99.90;;;;;;5035377;28;20489;-72
2022/02/03 17:07:19;;;;;;;0.35;0.32;;;8.20;99.90;;;;;;5033702;28;20030;-75
2022/02/03 17:09:45;;;;;;;0.00;0.00;;;8.20;99.90;;;;;;5035296;28;20105;-72
2022/02/03 17:12:10;;;;;;;0.52;0.52;;;8.10;99.90;;;;;;5035278;28;20109;-72
2022/02/03 17:14:36;;;;;;;0.20;0.20;;;8.10;99.90;;;;;;5035048;28;20030;-72
2022/02/03 17:17:02;;;;;;;0.22;0.22;;;8.20;99.90;;;;;;5034991;28;20029;-75
2022/02/03 17:19:28;;;;;;;0.20;0.20;;;8.20;99.90;;;;;;5034316;28;20045;-72
2022/02/03 17:21:53;;;;;;;0.50;0.47;;;8.10;99.90;;;;;;5034638;28;20029;-72
2022/02/03 17:24:19;;;;;;;0.10;0.10;;;8.10;99.90;;;;;;5034593;28;20055;-72
2022/02/03 17:29:20;;;;;;;0.30;0.08;;;8.10;99.90;;;;;;5020836;28;20056;-72
2022/02/03 18:09:54;;;;;;;0.55;0.55;;;7.90;99.90;;;;;;5034951;28;20024;-76
2022/02/03 18:36:13;;;;;;;1.45;0.65;;;7.80;99.90;;;;;;5015396;28;20448;-75
2022/02/03 18:49:59;;;;;;;0.20;0.20;;;7.80;99.90;;;;;;5022199;28;20033;-72
2022/02/03 18:52:49;;;;;;;0.20;0.20;;;7.80;99.90;;;;;;5032542;28;20028;-72
2022/02/03 18:55:42;;;;;;;0.00;0.00;;;7.90;99.90;;;;;;5033558;28;20101;-76
2022/02/03 19:01:06;;;;;;;0.00;0.00;;;7.90;99.90;;;;;;5033726;28;20404;-76
2022/02/03 20:08:24;;;;;;;;;;;8.10;99.90;;;;;;5032085;28;20041;-72
2022/02/03 20:10:52;;;;;;;0.00;0.00;;;8.00;99.90;;;;;;5032728;28;19913;-76
2022/02/03 20:13:18;;;;;;;0.32;0.32;;;8.10;99.90;;;;;;5032482;28;20046;-72
2022/02/03 20:15:46;;;;;;;0.10;0.10;;;8.10;99.90;;;;;;5031848;28;20484;-71
2022/02/03 20:18:12;;;;;;;1.35;1.25;;;8.10;99.90;;;;;;5032257;28;20105;-71
2022/02/03 20:20:43;;;;;;;3.10;1.20;;;8.10;99.90;;;;;;5032414;28;20097;-71
2022/02/03 20:23:13;;;;;;;1.23;1.02;;;8.20;99.90;;;;;;5032497;28;20456;-76
2022/02/03 20:25:41;;;;;;;0.88;0.57;;;8.20;99.90;;;;;;5032309;28;20049;-71
2022/02/03 20:28:08;;;;;;;0.30;0.30;;;8.20;99.90;;;;;;5028338;28;20029;-76
2022/02/03 20:30:35;;;;;;;0.22;0.22;;;8.20;99.90;;;;;;5014693;28;20504;-76
2022/02/03 20:33:00;;;;;;;0.38;0.38;;;8.20;99.90;;;;;;5013029;28;20026;-76
2022/02/03 20:35:26;;;;;;;0.17;0.17;;;8.20;99.90;;;;;;5012216;28;20066;-71
2022/02/03 20:37:52;;;;;;;0.00;0.00;;;8.20;99.90;;;;;;5027757;28;20140;-76
2022/02/03 20:40:18;;;;;;;3.15;0.40;;;8.20;99.90;;;;;;5032891;28;20041;-76
2022/02/03 20:42:44;;;;;;;0.28;0.28;;;8.20;99.90;;;;;;5036130;28;20036;-71
2022/02/03 20:45:11;;;;;;;0.88;0.68;;;8.30;99.90;;;;;;5036132;28;20540;-71
2022/02/03 20:47:36;;;;;;;0.00;0.00;;;8.30;99.90;;;;;;5034492;28;20040;-72
2022/02/03 20:50:06;;;;;;;0.55;0.55;;;8.20;99.90;;;;;;5034511;28;20026;-76
2022/02/03 20:52:32;;;;;;;0.80;0.45;;;8.20;99.90;;;;;;5035739;28;20009;-72
2022/02/03 20:54:57;;;;;;;0.32;0.30;;;8.20;99.90;;;;;;5035598;28;20032;-77
2022/02/03 20:57:24;;;;;;;0.20;0.20;;;8.30;99.90;;;;;;5036013;28;20476;-76
2022/02/03 21:02:26;;;;;;;0.20;0.20;;;8.30;99.90;;;;;;5035841;28;20037;-76
2022/02/03 21:07:23;;;;;;;0.25;0.25;;;8.30;99.90;;;;;;5035281;28;20486;-71
2022/02/03 21:09:49;;;;;;;0.30;0.30;;;8.30;99.90;;;;;;5035516;28;20104;-71
2022/02/03 21:12:16;;;;;;;0.10;0.10;;;8.30;99.90;;;;;;5035936;28;20155;-76
2022/02/03 21:14:41;;;;;;;0.57;0.57;;;8.30;99.90;;;;;;5035605;28;20025;-76
2022/02/03 21:17:08;;;;;;;0.25;0.25;;;8.20;99.90;;;;;;5034604;28;20486;-71
2022/02/03 21:19:33;;;;;;;0.47;0.47;;;8.30;99.90;;;;;;5035070;28;20472;-71
2022/02/03 21:21:59;;;;;;;0.05;0.05;;;8.30;99.90;;;;;;5035424;28;20045;-71
2022/02/03 21:24:25;;;;;;;0.10;0.10;;;8.30;99.90;;;;;;5034295;28;20052;-71
2022/02/03 21:26:53;;;;;;;0.20;0.20;;;8.30;99.90;;;;;;5033845;28;20543;-76
2022/02/03 21:29:20;;;;;;;0.10;0.10;;;8.30;99.90;;;;;;5034945;28;20401;-76
2022/02/03 21:31:45;;;;;;;0.10;0.10;;;8.30;99.90;;;;;;5035159;28;20576;-72
2022/02/03 21:34:15;;;;;;;1.20;1.05;;;8.30;99.90;;;;;;5034875;28;20100;-72
2022/02/03 21:36:43;;;;;;;0.28;0.28;;;8.30;99.90;;;;;;5034374;28;20037;-71
2022/02/03 21:39:09;;;;;;;0.75;0.70;;;8.30;99.90;;;;;;5033938;28;20025;-76
2022/02/03 21:41:34;;;;;;;0.88;0.57;;;8.30;99.90;;;;;;5034712;28;20025;-71
2022/02/03 21:44:00;;;;;;;0.28;0.28;;;8.30;99.90;;;;;;5035171;28;20059;-72
2022/02/03 21:46:26;;;;;;;0.63;0.63;;;8.30;99.90;;;;;;5034163;28;20021;-75
2022/02/03 21:48:52;;;;;;;0.25;0.25;;;8.30;99.90;;;;;;5032749;28;20029;-76
2022/02/03 21:51:23;;;;;;;0.20;0.20;;;8.30;99.90;;;;;;5034712;28;20025;-72
2022/02/03 21:53:49;;;;;;;0.00;0.00;;;8.30;99.90;;;;;;5033757;28;20473;-72
2022/02/03 21:56:16;;;;;;;0.00;0.00;;;8.30;99.90;;;;;;5034993;28;20022;-72
2022/02/03 21:58:42;;;;;;;0.03;0.03;;;8.30;99.90;;;;;;5034434;28;20598;-76
2022/02/03 22:01:08;;;;;;;0.40;0.40;;;8.30;99.90;;;;;;5034250;28;20104;-72
2022/02/03 22:03:33;;;;;;;0.43;0.43;;;8.30;99.90;;;;;;5034851;28;20029;-72
2022/02/03 22:06:00;;;;;;;0.28;0.28;;;8.30;99.90;;;;;;5031703;28;20428;-71
2022/02/03 22:08:26;;;;;;;0.10;0.10;;;8.30;99.90;;;;;;5013996;28;20026;-71
2022/02/03 22:10:55;;;;;;;0.00;0.00;;;8.30;99.90;;;;;;5014597;28;20040;-72
2022/02/03 22:13:21;;;;;;;0.15;0.15;;;8.30;99.90;;;;;;5013601;28;20084;-76
2022/02/03 22:15:46;;;;;;;0.03;0.03;;;8.30;99.90;;;;;;5014582;28;20470;-75
2022/02/03 22:18:15;;;;;;;0.57;0.52;;;8.30;99.90;;;;;;5014335;28;20034;-75
2022/02/03 22:20:56;;;;;;;0.30;0.30;;;8.30;99.90;;;;;;5013785;28;20050;-75
2022/02/03 22:40:37;;;;;;;0.50;0.50;;;8.20;99.90;;;;;;5033054;28;20028;-72
2022/02/03 22:44:55;;;;;;;0.40;0.40;;;8.20;99.90;;;;;;5033148;28;20451;-72
2022/02/03 22:47:34;;;;;;;0.98;0.60;;;8.20;99.90;;;;;;5033337;28;20503;-71
2022/02/03 22:50:00;;;;;;;0.15;0.15;;;8.20;99.90;;;;;;5033634;28;20029;-71
2022/02/03 22:52:25;;;;;;;1.27;0.55;;;8.10;99.90;;;;;;5033163;28;20028;-75
2022/02/03 22:54:51;;;;;;;0.10;0.10;;;8.10;99.90;;;;;;5033001;28;20156;-71
2022/02/03 22:57:17;;;;;;;0.28;0.28;;;8.10;99.90;;;;;;5033990;28;20025;-75
2022/02/03 23:02:09;;;;;;;0.90;0.85;;;8.10;99.90;;;;;;5033658;28;20028;-71
2022/02/03 23:04:38;;;;;;;0.30;0.30;;;8.10;99.90;;;;;;5032770;28;20032;-75
2022/02/03 23:07:21;;;;;;;0.10;0.10;;;8.10;99.90;;;;;;5032848;28;20032;-72
2022/02/03 23:12:29;;;;;;;0.88;0.88;;;8.10;99.90;;;;;;5033502;28;20121;-75
2022/02/03 23:17:41;;;;;;;0.40;0.20;;;8.10;99.90;;;;;;5033531;28;20036;-72
2022/02/03 23:20:21;;;;;;;0.22;0.22;;;8.10;99.90;;;;;;5032485;28;20021;-72
2022/02/03 23:22:46;;;;;;;0.65;0.65;;;8.10;99.90;;;;;;5033007;28;20029;-75
2022/02/03 23:25:18;;;;;;;0.25;0.25;;;8.10;99.90;;;;;;5032984;28;20121;-75
2022/02/03 23:30:18;;;;;;;0.25;0.25;;;8.10;99.90;;;;;;5033327;28;20044;-72
2022/02/03 23:32:44;;;;;;;1.45;0.30;;;8.00;99.90;;;;;;5032797;28;20104;-71
2022/02/03 23:35:22;;;;;;;0.57;0.57;;;8.00;99.90;;;;;;5033208;28;20052;-75
2022/02/03 23:38:42;;;;;;;0.30;0.30;;;8.00;99.90;;;;;;5032639;28;20025;-75
2022/02/03 23:41:04;;;;;;;1.17;0.52;;;8.00;99.90;;;;;;5032323;28;20042;-72
